createdAt,value
2017-10-07T00:01:47.349Z,94867.96
2017-10-07T00:04:14.896Z,94869.41
2017-10-07T00:06:42.477Z,94877.05
2017-10-07T00:09:10.058Z,94870.43
2017-10-07T00:11:37.861Z,94859.66
2017-10-07T00:14:05.430Z,94852.24
2017-10-07T00:16:33.016Z,94858.84
2017-10-07T00:19:00.828Z,94853.00
2017-10-07T00:21:28.424Z,94839.27
2017-10-07T00:23:56.011Z,94837.33
2017-10-07T00:26:23.561Z,94839.78
2017-10-07T00:28:51.411Z,94829.88
2017-10-07T00:31:19.263Z,94821.09
2017-10-07T00:33:46.785Z,94822.27
2017-10-07T00:36:14.527Z,94807.70
2017-10-07T00:38:42.086Z,94795.27
2017-10-07T00:41:09.663Z,94802.34
2017-10-07T00:43:37.256Z,94789.16
2017-10-07T00:46:04.886Z,94788.11
2017-10-07T00:48:32.634Z,94788.20
2017-10-07T00:51:00.375Z,94798.14
2017-10-07T00:53:28.145Z,94804.16
2017-10-07T00:55:55.674Z,94799.30
2017-10-07T00:58:23.277Z,94797.27
2017-10-07T01:00:50.919Z,94800.99
2017-10-07T01:03:18.476Z,94814.59
2017-10-07T01:05:46.079Z,94809.19
2017-10-07T01:08:13.845Z,94806.73
2017-10-07T01:10:41.652Z,94797.34
2017-10-07T01:13:09.192Z,94801.92
2017-10-07T01:15:36.819Z,94796.12
2017-10-07T01:18:04.590Z,94800.86
2017-10-07T01:20:32.208Z,94798.25
2017-10-07T01:23:00.442Z,94783.45
2017-10-07T01:25:28.008Z,94794.46
2017-10-07T01:27:55.714Z,94802.47
2017-10-07T01:30:23.364Z,94791.99
2017-10-07T01:32:51.159Z,94785.11
2017-10-07T01:35:18.717Z,94772.39
2017-10-07T01:37:46.565Z,94768.11
2017-10-07T01:40:14.112Z,94765.45
2017-10-07T01:42:41.887Z,94770.66
2017-10-07T01:45:09.460Z,94776.81
2017-10-07T01:47:37.308Z,94788.21
2017-10-07T01:50:04.953Z,94785.64
2017-10-07T01:52:32.594Z,94762.77
2017-10-07T01:55:00.186Z,94762.25
2017-10-07T01:57:27.742Z,94766.07
2017-10-07T01:59:55.362Z,94761.42
2017-10-07T02:02:22.979Z,94750.59
2017-10-07T02:04:50.648Z,94737.91
2017-10-07T02:07:18.190Z,94746.34
2017-10-07T02:09:45.791Z,94737.69
2017-10-07T02:12:13.392Z,94733.66
2017-10-07T02:14:41.151Z,94739.39
2017-10-07T02:17:08.765Z,94744.05
2017-10-07T02:19:36.616Z,94741.77
2017-10-07T02:22:04.202Z,94739.50
2017-10-07T02:24:31.778Z,94737.45
2017-10-07T02:27:00.300Z,94739.77
2017-10-07T02:29:28.043Z,94734.59
2017-10-07T02:31:55.627Z,94723.32
2017-10-07T02:34:23.999Z,94710.91
2017-10-07T02:36:51.752Z,94699.28
2017-10-07T02:39:19.380Z,94684.17
2017-10-07T02:41:48.241Z,94699.45
2017-10-07T02:44:16.803Z,94714.63
2017-10-07T02:46:44.438Z,94731.81
2017-10-07T02:49:12.960Z,94730.08
2017-10-07T02:51:41.422Z,94725.00
2017-10-07T02:54:08.994Z,94715.52
2017-10-07T02:56:36.565Z,94711.05
2017-10-07T02:59:04.117Z,94715.55
2017-10-07T03:01:31.958Z,94718.75
2017-10-07T03:03:59.794Z,94724.80
2017-10-07T03:06:27.611Z,94724.19
2017-10-07T03:08:55.272Z,94726.55
2017-10-07T03:11:23.623Z,94724.15
2017-10-07T03:13:51.142Z,94713.91
2017-10-07T03:16:19.155Z,94720.09
2017-10-07T03:18:46.911Z,94718.75
2017-10-07T03:21:14.662Z,94725.59
2017-10-07T03:23:42.274Z,94703.37
2017-10-07T03:26:09.817Z,94674.34
2017-10-07T03:28:37.393Z,94696.33
2017-10-07T03:31:05.005Z,94719.76
2017-10-07T03:33:32.546Z,94717.45
2017-10-07T03:36:00.418Z,94713.27
2017-10-07T03:38:28.021Z,94705.10
2017-10-07T03:40:55.590Z,94709.16
2017-10-07T03:43:23.399Z,94713.11
2017-10-07T03:45:51.650Z,94697.73
2017-10-07T03:48:19.454Z,94687.99
2017-10-07T03:50:47.210Z,94681.15
2017-10-07T03:53:15.384Z,94678.78
2017-10-07T03:55:42.999Z,94692.14
2017-10-07T03:58:10.738Z,94680.78
2017-10-07T04:00:38.359Z,94682.04
2017-10-07T04:03:06.122Z,94676.59
2017-10-07T04:05:33.706Z,94670.28
2017-10-07T04:08:01.330Z,94668.38
2017-10-07T04:10:29.106Z,94653.33
2017-10-07T04:12:56.960Z,94650.75
2017-10-07T04:15:24.579Z,94660.51
2017-10-07T04:17:52.204Z,94671.14
2017-10-07T04:20:19.839Z,94673.77
2017-10-07T04:22:47.557Z,94679.83
2017-10-07T04:25:15.207Z,94674.59
2017-10-07T04:27:43.070Z,94642.08
2017-10-07T04:30:10.639Z,94659.25
2017-10-07T04:32:38.400Z,94678.74
2017-10-07T04:35:05.995Z,94692.83
2017-10-07T04:37:33.606Z,94652.02
2017-10-07T04:40:01.609Z,94643.09
2017-10-07T04:42:30.040Z,94651.48
2017-10-07T04:44:58.041Z,94658.23
2017-10-07T04:47:26.833Z,94672.09
2017-10-07T04:49:54.611Z,94662.13
2017-10-07T04:52:22.271Z,94661.66
2017-10-07T04:54:53.501Z,94683.45
2017-10-07T04:57:21.262Z,94665.01
2017-10-07T04:59:48.962Z,94650.06
2017-10-07T05:02:16.709Z,94664.81
2017-10-07T05:04:44.522Z,94688.30
2017-10-07T05:07:12.102Z,94662.28
2017-10-07T05:09:39.710Z,94664.98
2017-10-07T05:12:07.815Z,94682.10
2017-10-07T05:14:35.610Z,94681.55
2017-10-07T05:17:03.209Z,94669.43
2017-10-07T05:19:30.984Z,94680.06
2017-10-07T05:21:59.414Z,94673.94
2017-10-07T05:24:27.018Z,94641.05
2017-10-07T05:26:54.587Z,94636.74
2017-10-07T05:29:22.218Z,94657.61
2017-10-07T05:31:49.852Z,94658.80
2017-10-07T05:34:17.482Z,94636.50
2017-10-07T05:36:45.311Z,94634.70
2017-10-07T05:39:13.826Z,94659.38
2017-10-07T05:41:41.376Z,94651.16
2017-10-07T05:44:08.928Z,94617.52
2017-10-07T05:46:36.845Z,94648.03
2017-10-07T05:49:04.480Z,94651.80
2017-10-07T05:51:32.005Z,94631.69
2017-10-07T05:54:00.401Z,94629.38
2017-10-07T05:56:28.086Z,94642.42
2017-10-07T05:58:55.870Z,94646.77
2017-10-07T06:01:23.496Z,94649.48
2017-10-07T06:03:51.098Z,94653.14
2017-10-07T06:06:18.899Z,94646.01
2017-10-07T06:08:46.493Z,94631.36
2017-10-07T06:11:14.950Z,94632.84
2017-10-07T06:13:42.516Z,94652.79
2017-10-07T06:16:10.324Z,94651.39
2017-10-07T06:18:39.045Z,94646.69
2017-10-07T06:21:12.763Z,94645.45
2017-10-07T06:23:40.409Z,94652.50
2017-10-07T06:26:08.049Z,94646.48
2017-10-07T06:28:36.039Z,94647.42
2017-10-07T06:31:04.433Z,94678.65
2017-10-07T06:33:31.971Z,94679.23
2017-10-07T06:36:03.082Z,94690.12
2017-10-07T06:38:30.735Z,94705.38
2017-10-07T06:40:58.390Z,94732.66
2017-10-07T06:43:26.851Z,94723.23
2017-10-07T06:45:54.607Z,94713.02
2017-10-07T06:48:22.296Z,94705.97
2017-10-07T06:50:49.955Z,94707.26
2017-10-07T06:53:17.589Z,94707.85
2017-10-07T06:55:45.376Z,94703.37
2017-10-07T06:58:13.575Z,94702.32
2017-10-07T07:00:41.358Z,94698.06
2017-10-07T07:03:08.965Z,94692.50
2017-10-07T07:05:36.617Z,94708.11
2017-10-07T07:08:04.300Z,94717.95
2017-10-07T07:10:32.866Z,94727.37
2017-10-07T07:13:00.573Z,94732.64
2017-10-07T07:15:28.283Z,94736.16
2017-10-07T07:17:55.940Z,94735.25
2017-10-07T07:20:23.594Z,94732.17
2017-10-07T07:22:51.422Z,94756.33
2017-10-07T07:25:19.057Z,94769.23
2017-10-07T07:27:46.694Z,94780.84
2017-10-07T07:30:14.336Z,94798.98
2017-10-07T07:32:41.991Z,94796.30
2017-10-07T07:35:09.641Z,94827.45
2017-10-07T07:37:38.275Z,94833.87
2017-10-07T07:40:05.883Z,94857.63
2017-10-07T07:42:33.520Z,94875.88
2017-10-07T07:45:01.181Z,94899.25
2017-10-07T07:47:29.554Z,94910.47
2017-10-07T07:49:57.216Z,94908.63
2017-10-07T07:52:24.955Z,94894.23
2017-10-07T07:54:52.621Z,94878.21
2017-10-07T07:57:20.271Z,94902.84
2017-10-07T07:59:48.102Z,94926.34
2017-10-07T08:02:19.861Z,94921.46
2017-10-07T08:04:47.568Z,94926.53
2017-10-07T08:07:15.183Z,94938.71
2017-10-07T08:09:43.199Z,94952.70
2017-10-07T08:12:11.064Z,94951.91
2017-10-07T08:14:38.661Z,94950.52
2017-10-07T08:17:06.230Z,94936.72
2017-10-07T08:20:11.948Z,94924.91
2017-10-07T08:22:39.583Z,94942.95
2017-10-07T08:25:07.879Z,94963.02
2017-10-07T08:27:35.867Z,94961.24
2017-10-07T08:30:07.489Z,94966.03
2017-10-07T08:32:35.087Z,94960.11
2017-10-07T08:35:03.090Z,94950.22
2017-10-07T08:37:31.433Z,94947.36
2017-10-07T08:40:00.097Z,94953.81
2017-10-07T08:42:27.853Z,94940.56
2017-10-07T08:44:56.282Z,94927.45
2017-10-07T08:47:23.818Z,94915.56
2017-10-07T08:49:51.538Z,94921.83
2017-10-07T08:52:19.127Z,94926.67
2017-10-07T08:54:47.560Z,94923.59
2017-10-07T08:57:15.913Z,94926.80
2017-10-07T08:59:43.601Z,94921.91
2017-10-07T09:02:11.275Z,94910.46
2017-10-07T09:04:39.369Z,94901.27
2017-10-07T09:07:07.201Z,94917.02
2017-10-07T09:09:34.902Z,94928.12
2017-10-07T09:12:03.540Z,94933.14
2017-10-07T09:14:31.396Z,94923.93
2017-10-07T09:16:59.642Z,94916.84
2017-10-07T09:19:27.293Z,94905.11
2017-10-07T09:21:54.910Z,94879.64
2017-10-07T09:24:23.846Z,94868.52
2017-10-07T09:26:52.007Z,94883.89
2017-10-07T09:29:19.560Z,94908.15
2017-10-07T09:31:47.140Z,94912.02
2017-10-07T09:34:14.729Z,94901.59
2017-10-07T09:36:42.384Z,94893.98
2017-10-07T09:39:10.043Z,94889.31
2017-10-07T09:41:37.658Z,94895.75
2017-10-07T09:44:05.234Z,94897.21
2017-10-07T09:46:32.869Z,94892.90
2017-10-07T09:49:02.638Z,94887.72
2017-10-07T09:51:30.167Z,94867.88
2017-10-07T09:53:57.998Z,94867.67
2017-10-07T09:56:26.485Z,94843.92
2017-10-07T09:58:55.027Z,94847.52
2017-10-07T10:01:25.542Z,94848.31
2017-10-07T10:03:53.356Z,94856.37
2017-10-07T10:06:20.886Z,94856.56
2017-10-07T10:08:48.513Z,94854.09
2017-10-07T10:11:16.797Z,94839.16
2017-10-07T10:13:46.027Z,94843.09
2017-10-07T10:16:14.370Z,94833.40
2017-10-07T10:18:42.067Z,94837.06
2017-10-07T10:21:11.594Z,94843.37
2017-10-07T10:23:39.604Z,94838.69
2017-10-07T10:26:11.902Z,94852.12
2017-10-07T10:28:40.554Z,94850.89
2017-10-07T10:31:10.062Z,94847.67
2017-10-07T10:33:58.251Z,94687.06
2017-10-07T10:39:37.034Z,94842.25
2017-10-07T10:42:08.956Z,94834.89
2017-10-07T10:44:41.827Z,94831.66
2017-10-07T10:47:37.923Z,94821.52
2017-10-07T10:50:09.576Z,94805.02
2017-10-07T10:56:01.607Z,94784.03
2017-10-07T10:58:29.361Z,94786.73
2017-10-07T11:00:56.963Z,94794.17
2017-10-07T11:03:28.635Z,94803.25
2017-10-07T11:05:56.851Z,94801.30
2017-10-07T11:08:26.530Z,94791.05
2017-10-07T11:10:55.727Z,94792.84
2017-10-07T11:13:23.338Z,94792.96
2017-10-07T11:15:50.941Z,94804.86
2017-10-07T11:18:18.742Z,94812.74
2017-10-07T11:20:46.402Z,94817.55
2017-10-07T11:23:14.310Z,94817.78
2017-10-07T11:25:45.282Z,94809.70
2017-10-07T11:28:16.572Z,94811.51
2017-10-07T11:30:44.198Z,94819.13
2017-10-07T11:33:11.989Z,94828.62
2017-10-07T11:38:22.294Z,94811.83
2017-10-07T11:40:50.134Z,94804.33
2017-10-07T11:43:19.528Z,94803.55
2017-10-07T11:45:47.307Z,94808.59
2017-10-07T11:48:16.390Z,94808.35
2017-10-07T11:50:44.297Z,94820.72
2017-10-07T11:53:14.880Z,94814.34
2017-10-07T11:55:43.170Z,94801.83
2017-10-07T11:58:11.155Z,94808.38
2017-10-07T12:00:38.766Z,94812.06
2017-10-07T12:03:07.198Z,94816.08
2017-10-07T12:05:35.264Z,94821.55
2017-10-07T12:08:02.873Z,94820.45
2017-10-07T12:10:30.962Z,94818.86
2017-10-07T12:12:59.570Z,94814.50
2017-10-07T12:15:30.023Z,94818.77
2017-10-07T12:18:01.380Z,94827.73
2017-10-07T12:20:35.510Z,94834.80
2017-10-07T12:23:05.278Z,94822.22
2017-10-07T12:25:35.570Z,94823.99
2017-10-07T12:28:11.940Z,94819.94
2017-10-07T12:30:44.283Z,94825.41
2017-10-07T12:33:15.197Z,94830.68
2017-10-07T12:35:42.774Z,94840.28
2017-10-07T12:38:11.598Z,94847.29
2017-10-07T12:40:42.987Z,94859.42
2017-10-07T12:43:10.628Z,94868.18
2017-10-07T12:45:38.420Z,94875.84
2017-10-07T12:48:06.006Z,94868.20
2017-10-07T12:50:33.709Z,94884.13
2017-10-07T12:53:01.320Z,94903.63
2017-10-07T12:55:28.868Z,94893.68
2017-10-07T12:57:57.112Z,94889.22
2017-10-07T13:00:25.286Z,94891.42
2017-10-07T13:02:52.845Z,94901.34
2017-10-07T13:05:20.378Z,94910.97
2017-10-07T13:07:47.990Z,94915.95
2017-10-07T13:10:16.247Z,94921.30
2017-10-07T13:12:44.153Z,94920.49
2017-10-07T13:15:11.757Z,94910.02
2017-10-07T13:17:39.356Z,94903.59
2017-10-07T13:20:07.176Z,94889.00
2017-10-07T13:22:34.806Z,94905.82
2017-10-07T13:25:02.448Z,94894.11
2017-10-07T13:27:30.886Z,94902.45
2017-10-07T13:29:58.736Z,94899.31
2017-10-07T13:32:26.899Z,94905.48
2017-10-07T13:34:54.451Z,94914.34
2017-10-07T13:37:22.022Z,94906.99
2017-10-07T13:39:49.627Z,94889.22
2017-10-07T13:42:17.205Z,94893.15
2017-10-07T13:44:45.117Z,94891.13
2017-10-07T13:47:12.703Z,94874.25
2017-10-07T13:49:41.087Z,94877.21
2017-10-07T13:52:08.696Z,94864.64
2017-10-07T13:54:36.321Z,94859.69
2017-10-07T13:57:04.602Z,94860.97
2017-10-07T13:59:32.181Z,94854.03
2017-10-07T14:02:00.522Z,94859.98
2017-10-07T14:04:28.476Z,94877.84
2017-10-07T14:06:57.438Z,94898.11
2017-10-07T14:09:25.070Z,94917.05
2017-10-07T14:11:52.853Z,94931.03
2017-10-07T14:14:20.571Z,94934.91
2017-10-07T14:16:49.248Z,94915.85
2017-10-07T14:19:16.979Z,94903.55
2017-10-07T14:21:44.585Z,94907.06
2017-10-07T14:24:12.202Z,94896.22
2017-10-07T14:26:40.167Z,94873.63
2017-10-07T14:29:07.927Z,94861.92
2017-10-07T14:31:36.519Z,94861.16
2017-10-07T14:34:04.254Z,94891.42
2017-10-07T14:36:31.792Z,94920.82
2017-10-07T14:39:01.207Z,94932.27
2017-10-07T14:41:28.836Z,94911.60
2017-10-07T14:43:56.726Z,94872.30
2017-10-07T14:46:24.361Z,94861.58
2017-10-07T14:48:52.515Z,94847.02
2017-10-07T14:51:20.872Z,94842.33
2017-10-07T14:53:48.574Z,94861.39
2017-10-07T14:56:16.215Z,94896.87
2017-10-07T14:58:43.939Z,94912.10
2017-10-07T15:01:11.687Z,94907.88
2017-10-07T15:03:39.485Z,94895.05
2017-10-07T15:06:07.071Z,94885.32
2017-10-07T15:08:34.631Z,94889.93
2017-10-07T15:11:02.215Z,94885.10
2017-10-07T15:13:29.813Z,94894.47
2017-10-07T15:15:57.579Z,94898.54
2017-10-07T15:18:25.126Z,94917.41
2017-10-07T15:20:52.726Z,94920.36
2017-10-07T15:23:20.367Z,94927.16
2017-10-07T15:25:48.060Z,94924.05
2017-10-07T15:28:16.455Z,94920.70
2017-10-07T15:30:44.045Z,94904.39
2017-10-07T15:33:11.590Z,94908.94
2017-10-07T15:35:39.175Z,94905.17
2017-10-07T15:38:06.806Z,94912.27
2017-10-07T15:40:34.446Z,94908.02
2017-10-07T15:43:02.115Z,94906.62
2017-10-07T15:45:30.183Z,94926.60
2017-10-07T15:47:57.836Z,94940.73
2017-10-07T15:50:25.398Z,94952.28
2017-10-07T15:52:53.124Z,94957.41
2017-10-07T15:55:20.719Z,94954.52
2017-10-07T15:57:48.333Z,94963.43
2017-10-07T16:00:16.000Z,94965.98
2017-10-07T16:02:43.551Z,94966.44
2017-10-07T16:05:11.105Z,94953.75
2017-10-07T16:07:38.806Z,94976.53
2017-10-07T16:10:06.507Z,94987.72
2017-10-07T16:12:34.099Z,94979.64
2017-10-07T16:15:02.881Z,94971.17
2017-10-07T16:17:30.659Z,94940.48
2017-10-07T16:19:58.378Z,94929.58
2017-10-07T16:22:26.182Z,94910.85
2017-10-07T16:24:54.183Z,94902.29
2017-10-07T16:27:22.507Z,94914.09
2017-10-07T16:29:50.914Z,94907.66
2017-10-07T16:32:18.694Z,94900.84
2017-10-07T16:34:46.967Z,94919.45
2017-10-07T16:37:14.753Z,94944.12
2017-10-07T16:39:42.871Z,94929.29
2017-10-07T16:42:11.095Z,94910.00
2017-10-07T16:44:39.541Z,94901.68
2017-10-07T16:47:07.676Z,94955.56
2017-10-07T16:49:35.715Z,94976.69
2017-10-07T16:52:03.756Z,94959.91
2017-10-07T16:54:31.705Z,94961.65
2017-10-07T16:56:59.460Z,94956.08
2017-10-07T16:59:27.122Z,94955.40
2017-10-07T17:01:54.791Z,94967.77
2017-10-07T17:04:22.429Z,94971.68
2017-10-07T17:06:50.029Z,94975.98
2017-10-07T17:09:17.872Z,94977.22
2017-10-07T17:11:45.644Z,94998.69
2017-10-07T17:14:13.691Z,94998.55
2017-10-07T17:16:41.468Z,94992.63
2017-10-07T17:19:10.912Z,95008.88
2017-10-07T17:21:40.476Z,95025.95
2017-10-07T17:24:11.702Z,95027.94
2017-10-07T17:26:50.115Z,95028.48
2017-10-07T17:29:17.910Z,95024.94
2017-10-07T17:31:47.058Z,95038.21
2017-10-07T17:34:14.755Z,95046.94
2017-10-07T17:36:42.289Z,95046.81
2017-10-07T17:39:10.107Z,95025.20
2017-10-07T17:41:39.283Z,95000.03
2017-10-07T17:44:07.520Z,95008.55
2017-10-07T17:46:35.284Z,95041.36
2017-10-07T17:49:05.122Z,95027.73
2017-10-07T17:51:33.694Z,95012.80
2017-10-07T17:54:01.406Z,95025.58
2017-10-07T17:56:29.057Z,95034.86
2017-10-07T17:58:56.957Z,95044.56
2017-10-07T18:01:25.423Z,95046.73
2017-10-07T18:03:53.175Z,95055.20
2017-10-07T18:06:21.547Z,95048.14
2017-10-07T18:08:49.949Z,95038.51
2017-10-07T18:11:17.498Z,95033.00
2017-10-07T18:13:45.168Z,95024.31
2017-10-07T18:16:12.779Z,95020.38
2017-10-07T18:18:40.418Z,95006.34
2017-10-07T18:21:08.068Z,95014.23
2017-10-07T18:23:35.652Z,95035.45
2017-10-07T18:26:03.197Z,95032.04
2017-10-07T18:28:30.712Z,95027.64
2017-10-07T18:30:58.311Z,95042.53
2017-10-07T18:33:25.847Z,95046.70
2017-10-07T18:35:53.394Z,95043.17
2017-10-07T18:38:21.383Z,95060.13
2017-10-07T18:40:49.282Z,95061.00
2017-10-07T18:43:16.816Z,95065.33
2017-10-07T18:45:44.412Z,95054.30
2017-10-07T18:48:12.017Z,95063.52
2017-10-07T18:50:40.536Z,95078.98
2017-10-07T18:53:08.084Z,95083.26
2017-10-07T18:55:35.825Z,95084.92
2017-10-07T18:58:03.741Z,95084.45
2017-10-07T19:00:31.370Z,95088.30
2017-10-07T19:02:58.967Z,95092.87
2017-10-07T19:05:26.797Z,95102.34
2017-10-07T19:07:54.429Z,95102.66
2017-10-07T19:10:22.610Z,95094.70
2017-10-07T19:12:50.224Z,95099.74
2017-10-07T19:15:18.786Z,95109.43
2017-10-07T19:17:47.152Z,95104.00
2017-10-07T19:20:14.906Z,95115.81
2017-10-07T19:22:42.594Z,95124.92
2017-10-07T19:25:10.349Z,95119.47
2017-10-07T19:27:37.890Z,95119.45
2017-10-07T19:30:07.533Z,95130.19
2017-10-07T19:32:35.344Z,95138.00
2017-10-07T19:35:03.161Z,95139.95
2017-10-07T19:37:30.767Z,95140.59
2017-10-07T19:39:58.938Z,95140.44
2017-10-07T19:42:26.559Z,95152.41
2017-10-07T19:44:54.189Z,95151.53
2017-10-07T19:47:22.108Z,95146.84
2017-10-07T19:49:50.036Z,95140.17
2017-10-07T19:52:17.937Z,95143.55
2017-10-07T19:54:45.879Z,95142.54
2017-10-07T19:57:14.872Z,95143.89
2017-10-07T19:59:42.473Z,95142.64
2017-10-07T20:02:10.059Z,95146.66
2017-10-07T20:04:37.690Z,95145.37
2017-10-07T20:07:05.246Z,95153.36
2017-10-07T20:09:32.803Z,95149.59
2017-10-07T20:12:00.337Z,95140.34
2017-10-07T20:14:28.424Z,95159.14
2017-10-07T20:16:56.066Z,95153.46
2017-10-07T20:19:23.733Z,95153.46
2017-10-07T20:21:51.617Z,95170.34
2017-10-07T20:24:19.211Z,95165.11
2017-10-07T20:26:46.757Z,95167.99
2017-10-07T20:29:14.275Z,95165.91
2017-10-07T20:31:42.705Z,95172.09
2017-10-07T20:34:10.235Z,95171.06
2017-10-07T20:36:38.045Z,95167.98
2017-10-07T20:39:05.687Z,95172.17
2017-10-07T20:41:33.213Z,95173.59
2017-10-07T20:44:00.720Z,95168.68
2017-10-07T20:46:28.272Z,95168.85
2017-10-07T20:48:55.875Z,95166.66
2017-10-07T20:51:23.419Z,95169.42
2017-10-07T20:53:51.000Z,95169.72
2017-10-07T20:56:18.539Z,95166.70
2017-10-07T20:58:46.155Z,95166.64
2017-10-07T21:01:13.786Z,95168.70
2017-10-07T21:03:41.345Z,95167.30
2017-10-07T21:06:09.305Z,95163.00
2017-10-07T21:08:36.860Z,95168.08
2017-10-07T21:11:04.458Z,95170.83
2017-10-07T21:13:32.039Z,95167.30
2017-10-07T21:15:59.667Z,95174.00
2017-10-07T21:18:27.220Z,95174.16
2017-10-07T21:20:54.883Z,95173.37
2017-10-07T21:23:22.503Z,95180.33
2017-10-07T21:25:50.047Z,95175.10
2017-10-07T21:28:17.608Z,95180.95
2017-10-07T21:30:45.791Z,95175.03
2017-10-07T21:33:13.589Z,95169.11
2017-10-07T21:35:41.327Z,95175.67
2017-10-07T21:38:08.963Z,95178.97
2017-10-07T21:40:36.876Z,95182.16
2017-10-07T21:43:04.638Z,95179.36
2017-10-07T21:45:32.567Z,95178.80
2017-10-07T21:48:00.108Z,95178.34
2017-10-07T21:50:28.605Z,95169.66
2017-10-07T21:52:57.003Z,95181.03
2017-10-07T21:55:25.314Z,95171.66
2017-10-07T21:57:52.927Z,95172.19
2017-10-07T22:00:20.663Z,95173.05
2017-10-07T22:02:48.447Z,95164.06
2017-10-07T22:05:16.007Z,95178.89
2017-10-07T22:07:43.931Z,95169.98
2017-10-07T22:10:11.555Z,95173.16
2017-10-07T22:12:39.101Z,95173.70
2017-10-07T22:15:06.721Z,95173.69
2017-10-07T22:17:35.010Z,95175.83
2017-10-07T22:20:02.561Z,95173.84
2017-10-07T22:22:30.275Z,95173.38
2017-10-07T22:24:57.982Z,95174.16
2017-10-07T22:27:25.567Z,95170.34
2017-10-07T22:29:53.199Z,95170.84
2017-10-07T22:32:20.926Z,95160.77
2017-10-07T22:34:49.208Z,95162.00
2017-10-07T22:37:17.339Z,95153.70
2017-10-07T22:39:45.948Z,95153.23
2017-10-07T22:42:13.590Z,95157.58
2017-10-07T22:44:41.117Z,95162.09
2017-10-07T22:47:08.739Z,95158.89
2017-10-07T22:49:37.231Z,95159.13
2017-10-07T22:52:04.999Z,95188.30
2017-10-07T22:54:33.266Z,95159.69
2017-10-07T22:57:00.974Z,95168.94
2017-10-07T22:59:28.651Z,95161.97
2017-10-07T23:01:56.317Z,95167.87
2017-10-07T23:04:23.967Z,95168.89
2017-10-07T23:06:52.127Z,95164.69
2017-10-07T23:09:19.706Z,95171.01
2017-10-07T23:11:47.278Z,95163.42
2017-10-07T23:14:14.881Z,95159.80
2017-10-07T23:16:42.516Z,95153.17
2017-10-07T23:19:10.362Z,95148.19
2017-10-07T23:21:37.924Z,95151.58
2017-10-07T23:24:05.601Z,95149.55
2017-10-07T23:26:33.139Z,95150.41
2017-10-07T23:29:00.659Z,95148.82
2017-10-07T23:31:28.230Z,95149.55
2017-10-07T23:33:55.808Z,95153.50
2017-10-07T23:36:23.573Z,95151.67
2017-10-07T23:38:51.166Z,95141.64
2017-10-07T23:41:18.703Z,95147.34
2017-10-07T23:43:46.439Z,95142.10
2017-10-07T23:46:14.055Z,95143.81
2017-10-07T23:48:41.847Z,95143.22
2017-10-07T23:51:09.660Z,95136.48
2017-10-07T23:53:37.468Z,95132.18
2017-10-07T23:56:05.182Z,95132.99
2017-10-07T23:58:32.932Z,95136.31
